createdAt,value
2022-10-16T00:03:30.396Z,126
2022-10-16T00:23:30.244Z,127
2022-10-16T00:43:30.161Z,128
2022-10-16T01:23:30.278Z,127
2022-10-16T01:43:30.232Z,128
2022-10-16T02:03:30.265Z,130
2022-10-16T02:23:30.298Z,130
2022-10-16T02:43:30.313Z,136
2022-10-16T03:03:30.399Z,136
2022-10-16T03:43:30.365Z,140
2022-10-16T04:03:30.386Z,138
2022-10-16T04:23:30.397Z,139
2022-10-16T04:43:30.417Z,135
2022-10-16T05:23:30.460Z,138
2022-10-16T05:43:30.468Z,139
2022-10-16T06:03:30.600Z,136
2022-10-16T06:23:30.525Z,136
2022-10-16T06:43:30.530Z,136
2022-10-16T07:03:30.571Z,138
2022-10-16T07:23:30.583Z,136
2022-10-16T07:43:30.610Z,135
2022-10-16T08:03:30.620Z,138
2022-10-16T08:23:30.154Z,139
2022-10-16T08:43:30.753Z,137
2022-10-16T09:03:30.662Z,137
2022-10-16T09:23:30.693Z,129
2022-10-16T09:43:30.709Z,131
2022-10-16T10:03:30.738Z,128
2022-10-16T10:23:30.747Z,129
2022-10-16T10:43:30.768Z,131
2022-10-16T11:03:30.849Z,127
2022-10-16T11:23:30.786Z,130
2022-10-16T11:43:30.792Z,131
2022-10-16T12:03:30.681Z,129
2022-10-16T12:23:30.879Z,130
2022-10-16T12:43:30.859Z,128
2022-10-16T13:03:30.875Z,121
2022-10-16T13:23:30.863Z,126
2022-10-16T13:43:30.908Z,128
2022-10-16T14:03:30.928Z,123
2022-10-16T14:23:30.919Z,120
2022-10-16T14:43:30.940Z,113
2022-10-16T15:03:30.509Z,112
2022-10-16T16:23:30.990Z,116
2022-10-16T16:43:30.544Z,117
2022-10-16T17:03:31.076Z,114
2022-10-16T17:23:31.060Z,119
2022-10-16T17:43:31.074Z,120
2022-10-16T18:03:30.591Z,117
2022-10-16T18:23:31.109Z,120
2022-10-16T18:43:31.125Z,122
2022-10-16T19:03:31.135Z,121
2022-10-16T19:23:31.190Z,121
2022-10-16T19:43:31.179Z,125
2022-10-16T20:03:31.194Z,123
2022-10-16T20:23:31.209Z,123
2022-10-16T20:43:31.243Z,122
2022-10-16T21:03:31.259Z,121
2022-10-16T21:23:31.278Z,119
2022-10-16T21:43:31.332Z,122
2022-10-16T22:03:31.307Z,124
2022-10-16T22:23:31.324Z,123
2022-10-16T22:43:31.339Z,116
2022-10-16T23:03:31.359Z,119
2022-10-16T23:43:31.417Z,122
